»·PEaware :: UAL5722 KDEN-KSLC

UAL5722 :: KDEN-KSLC

FLIGHT INFORMATION

Flight Status: Arrived
Operator:
United Airlines
More flights by this operator :: More flights under this callsign
Pilot: Nils Z. (23708)
Aircraft: BOEING 757-200
(B752)
More flights by this aircraft type
Origin: KDEN Denver Intl
United States
Destination: KSLC Salt Lake City Intl
United States
More flights between these airports :: More routes between these airports
Route: FOOOT4 RLG EKR LEEHY5
File this flight plan on PilotEdge
Remarks: RMK / SIMBRIEF
Altitude:
(Current/Filed)
36,000ft
Speed:
(Current/Filed)
448kts
Departed: 07-Mar-19 11:40 AM
Arrived: 07-Mar-19 12:54 PM
Distance/Time
Traveled:
339nm/1:14
Distance/Time
To Go:
Arrived

Flight Plot

Page will automatically refresh every two minutes.

Flight plan parsing failed; only flown route is shown


Map Options




Map Legend


Flown Route
Filed Route
Departure Airport
Arrival Airport
Navaid (VOR, NDB)
Fix

Horizontal Profiles

Position Reports

Time Latitude Longitude Heading Altitude Ground
Speed
07-Mar-19 10:56 39.859331 -104.676404 179 5446ft 0kts
07-Mar-19 10:57 39.859331 -104.676404 179 5446ft 0kts
07-Mar-19 10:58 39.859331 -104.676404 179 5446ft 0kts
07-Mar-19 10:59 39.859331 -104.676404 179 5445ft 0kts
07-Mar-19 11:00 39.859331 -104.676404 179 5446ft 0kts
07-Mar-19 11:01 39.859331 -104.676404 179 5446ft 0kts
07-Mar-19 11:02 39.859331 -104.676404 179 5446ft 0kts
07-Mar-19 11:03 39.859331 -104.676404 179 5446ft 0kts
07-Mar-19 11:04 39.859331 -104.676404 179 5445ft 0kts
07-Mar-19 11:05 39.859331 -104.676404 179 5445ft 0kts
07-Mar-19 11:06 39.859331 -104.676404 179 5445ft 0kts
07-Mar-19 11:07 39.859331 -104.676404 179 5445ft 0kts
07-Mar-19 11:08 39.859331 -104.676404 179 5445ft 0kts
07-Mar-19 11:09 39.859331 -104.676404 179 5445ft 0kts
07-Mar-19 11:10 39.859331 -104.676404 179 5445ft 0kts
07-Mar-19 11:11 39.859331 -104.676404 179 5445ft 0kts
07-Mar-19 11:12 39.859331 -104.676404 179 5445ft 0kts
07-Mar-19 11:13 39.859331 -104.676404 179 5445ft 0kts
07-Mar-19 11:14 39.859331 -104.676404 179 5445ft 0kts
07-Mar-19 11:15 39.859331 -104.676404 179 5445ft 0kts
07-Mar-19 11:16 39.859331 -104.676404 179 5445ft 0kts
07-Mar-19 11:17 39.859331 -104.676404 179 5445ft 0kts
07-Mar-19 11:18 39.859331 -104.676404 179 5445ft 0kts
07-Mar-19 11:19 39.859331 -104.676404 179 5445ft 0kts
07-Mar-19 11:20 39.859331 -104.676404 179 5445ft 0kts
07-Mar-19 11:21 39.859331 -104.676404 179 5445ft 0kts
07-Mar-19 11:22 39.859331 -104.676404 179 5445ft 0kts
07-Mar-19 11:23 39.859331 -104.676404 179 5445ft 0kts
07-Mar-19 11:24 39.859331 -104.676404 179 5445ft 0kts
07-Mar-19 11:25 39.859331 -104.676404 179 5445ft 0kts
07-Mar-19 11:26 39.859798 -104.676370 206 5446ft 2kts
07-Mar-19 11:27 39.860018 -104.675867 270 5446ft 0kts
07-Mar-19 11:28 39.860018 -104.675867 270 5445ft 0kts
07-Mar-19 11:29 39.860018 -104.675870 270 5445ft 0kts
07-Mar-19 11:30 39.860019 -104.677098 271 5445ft 5kts
07-Mar-19 11:31 39.860627 -104.679988 280 5445ft 5kts
07-Mar-19 11:32 39.860287 -104.682711 270 5445ft 8kts
07-Mar-19 11:33 39.858605 -104.683934 180 5445ft 12kts
07-Mar-19 11:34 39.854968 -104.683980 179 5445ft 12kts
07-Mar-19 11:35 39.851333 -104.683930 185 5445ft 8kts
07-Mar-19 11:36 39.848141 -104.684058 180 5445ft 18kts
07-Mar-19 11:37 39.842996 -104.684103 180 5445ft 11kts
07-Mar-19 11:38 39.840672 -104.684698 257 5445ft 9kts
07-Mar-19 11:39 39.840784 -104.715377 269 5588ft 163kts
07-Mar-19 11:40 39.850112 -104.776106 302 6791ft 197kts
07-Mar-19 11:41 39.885656 -104.850612 301 7644ft 265kts
07-Mar-19 11:42 39.924101 -104.935036 296 10232ft 270kts
07-Mar-19 11:43 39.951730 -105.037910 277 11919ft 308kts
07-Mar-19 11:44 39.965072 -105.150744 276 14283ft 314kts
07-Mar-19 11:45 39.978411 -105.265911 276 16400ft 319kts
07-Mar-19 11:46 39.983397 -105.382980 267 18414ft 321kts
07-Mar-19 11:47 39.979871 -105.501637 266 20222ft 328kts
07-Mar-19 11:48 39.976239 -105.623087 266 21982ft 333kts
07-Mar-19 11:49 39.973270 -105.746417 266 23623ft 340kts
07-Mar-19 11:50 39.972031 -105.872497 270 25225ft 347kts
07-Mar-19 11:51 39.979005 -105.999461 270 26762ft 350kts
07-Mar-19 11:52 39.985939 -106.126897 270 28194ft 354kts
07-Mar-19 11:53 39.992896 -106.256714 270 29526ft 359kts
07-Mar-19 11:55 39.999798 -106.388229 270 30763ft 363kts
07-Mar-19 11:56 40.006555 -106.521807 270 31973ft 369kts
07-Mar-19 11:57 40.013055 -106.654770 270 33578ft 364kts
07-Mar-19 11:58 40.019326 -106.786008 270 35199ft 360kts
07-Mar-19 11:59 40.025429 -106.916972 270 35976ft 359kts
07-Mar-19 12:00 40.031381 -107.048049 270 35966ft 360kts
07-Mar-19 12:01 40.037180 -107.178943 270 35963ft 361kts
07-Mar-19 12:02 40.042865 -107.310567 270 35961ft 362kts
07-Mar-19 12:03 40.048472 -107.444340 270 35963ft 373kts
07-Mar-19 12:04 40.054178 -107.584055 270 36005ft 386kts
07-Mar-19 12:05 40.059799 -107.725553 269 36019ft 387kts
07-Mar-19 12:06 40.065222 -107.866315 269 35974ft 387kts
07-Mar-19 12:07 40.071264 -108.007932 270 35966ft 388kts
07-Mar-19 12:08 40.077693 -108.149838 270 35973ft 389kts
07-Mar-19 12:09 40.083970 -108.292296 270 35980ft 389kts
07-Mar-19 12:10 40.090061 -108.434897 270 35978ft 391kts
07-Mar-19 12:11 40.096049 -108.579085 270 35976ft 394kts
07-Mar-19 12:12 40.101567 -108.715988 270 35984ft 396kts
07-Mar-19 12:13 40.107285 -108.862097 270 35982ft 399kts
07-Mar-19 12:13 40.111918 -108.984033 270 35980ft 401kts
07-Mar-19 12:15 40.118231 -109.156203 270 35978ft 404kts
07-Mar-19 12:16 40.123468 -109.304242 270 35977ft 406kts
07-Mar-19 12:17 40.128526 -109.452802 270 35975ft 407kts
07-Mar-19 12:17 40.132616 -109.577045 270 35969ft 401kts
07-Mar-19 12:19 40.137897 -109.744259 270 35983ft 390kts
07-Mar-19 12:20 40.142217 -109.886959 270 35981ft 390kts
07-Mar-19 12:20 40.145683 -110.006707 270 35235ft 402kts
07-Mar-19 12:21 40.149006 -110.154224 268 32800ft 404kts
07-Mar-19 12:22 40.147711 -110.304453 268 31427ft 401kts
07-Mar-19 12:23 40.146420 -110.444993 268 30734ft 381kts
07-Mar-19 12:24 40.144991 -110.584588 269 29716ft 377kts
07-Mar-19 12:25 40.143424 -110.720718 268 28516ft 372kts
07-Mar-19 12:26 40.141711 -110.856341 268 27143ft 367kts
07-Mar-19 12:27 40.139872 -110.989514 268 25655ft 361kts
07-Mar-19 12:28 40.137915 -111.120360 268 24120ft 354kts
07-Mar-19 12:29 40.135847 -111.248353 268 22596ft 347kts
07-Mar-19 12:30 40.133666 -111.374741 268 21057ft 340kts
07-Mar-19 12:31 40.131362 -111.499821 268 20336ft 339kts
07-Mar-19 12:32 40.156060 -111.617004 293 18937ft 336kts
07-Mar-19 12:33 40.196472 -111.727101 293 18436ft 335kts
07-Mar-19 12:34 40.237070 -111.837422 293 17468ft 330kts
07-Mar-19 12:35 40.281678 -111.942728 314 16593ft 333kts
07-Mar-19 12:36 40.361980 -112.006280 326 15535ft 331kts
07-Mar-19 12:37 40.446930 -112.053042 350 14705ft 332kts
07-Mar-19 12:38 40.535136 -112.065020 350 12967ft 303kts
07-Mar-19 12:39 40.618428 -112.076166 351 11148ft 295kts
07-Mar-19 12:40 40.700645 -112.085983 352 10988ft 298kts
07-Mar-19 12:41 40.783204 -112.095659 352 10981ft 295kts
07-Mar-19 12:42 40.865477 -112.105402 352 10974ft 283kts
07-Mar-19 12:43 40.941301 -112.114441 352 9843ft 262kts
07-Mar-19 12:44 41.011363 -112.122783 353 8977ft 243kts
07-Mar-19 12:45 41.080018 -112.129328 11 8981ft 246kts
07-Mar-19 12:46 41.111536 -112.062614 89 8037ft 251kts
07-Mar-19 12:47 41.070696 -112.009923 181 7990ft 208kts
07-Mar-19 12:48 41.012059 -112.018351 182 7981ft 210kts
07-Mar-19 12:49 40.952047 -112.015646 176 7114ft 216kts
07-Mar-19 12:50 40.894672 -112.009367 176 5956ft 191kts
07-Mar-19 12:51 40.848461 -112.004007 175 5062ft 135kts
07-Mar-19 12:52 40.812118 -111.999809 176 4347ft 131kts
07-Mar-19 12:53 40.791848 -111.996984 148 4227ft 5kts
07-Mar-19 12:54 40.790969 -111.995454 100 4227ft 6kts
07-Mar-19 12:55 40.791196 -111.990914 84 4227ft 11kts
07-Mar-19 12:56 40.791185 -111.987791 144 4227ft 8kts
07-Mar-19 12:57 40.789229 -111.987425 173 4227ft 7kts
07-Mar-19 12:58 40.788676 -111.985726 84 4227ft 3kts
07-Mar-19 12:59 40.788688 -111.985544 84 4227ft 0kts
07-Mar-19 13:00 40.788688 -111.985544 84 4227ft 0kts

Navigation Log

Ident Type
Flight plan parsing failed, navigation log unavailable